createdAt,value
2019-01-03T00:02:25.170Z,73.51
2019-01-03T00:04:55.594Z,73.41
2019-01-03T00:07:25.471Z,73.33
2019-01-03T00:09:55.784Z,73.53
2019-01-03T00:12:25.956Z,73.66
2019-01-03T00:14:56.099Z,73.87
2019-01-03T00:17:26.285Z,74.03
2019-01-03T00:19:56.400Z,73.55
2019-01-03T00:22:25.751Z,73.61
2019-01-03T00:24:55.424Z,73.49
2019-01-03T00:27:24.860Z,73.99
2019-01-03T00:29:54.697Z,73.99
2019-01-03T00:32:24.729Z,74.02
2019-01-03T00:34:54.869Z,74.00
2019-01-03T00:37:24.743Z,74.15
2019-01-03T00:39:55.783Z,73.94
2019-01-03T00:42:26.234Z,74.21
2019-01-03T00:44:56.414Z,74.12
2019-01-03T00:47:26.243Z,74.26
2019-01-03T00:49:56.386Z,74.26
2019-01-03T00:52:26.243Z,74.33
2019-01-03T00:54:56.048Z,74.28
2019-01-03T00:57:25.980Z,74.62
2019-01-03T00:59:55.407Z,74.54
2019-01-03T01:02:25.587Z,74.41
2019-01-03T01:04:55.682Z,74.58
2019-01-03T01:07:25.858Z,74.95
2019-01-03T01:09:56.335Z,74.96
2019-01-03T01:12:26.134Z,75.59
2019-01-03T01:14:56.014Z,75.60
2019-01-03T01:17:26.210Z,75.67
2019-01-03T01:19:56.036Z,75.48
2019-01-03T01:22:26.467Z,75.58
2019-01-03T01:24:56.271Z,75.50
2019-01-03T01:27:26.117Z,75.71
2019-01-03T01:29:55.968Z,75.59
2019-01-03T01:32:26.064Z,75.46
2019-01-03T01:34:55.906Z,75.57
2019-01-03T01:37:25.379Z,75.71
2019-01-03T01:39:55.179Z,75.73
2019-01-03T01:42:25.285Z,75.78
2019-01-03T01:44:55.075Z,76.05
2019-01-03T01:47:24.963Z,75.89
2019-01-03T01:49:55.160Z,75.93
2019-01-03T01:52:25.042Z,75.87
2019-01-03T01:54:55.251Z,76.23
2019-01-03T01:57:25.083Z,76.30
2019-01-03T01:59:54.988Z,76.00
2019-01-03T02:02:24.869Z,76.28
2019-01-03T02:04:55.333Z,76.33
2019-01-03T02:07:25.824Z,76.10
2019-01-03T02:09:55.860Z,76.46
2019-01-03T02:12:26.018Z,76.30
2019-01-03T02:14:56.082Z,76.10
2019-01-03T02:17:25.625Z,76.29
2019-01-03T02:19:54.960Z,76.21
2019-01-03T02:22:24.488Z,76.46
2019-01-03T02:24:54.282Z,76.67
2019-01-03T02:27:24.142Z,76.71
2019-01-03T02:29:53.991Z,76.89
2019-01-03T02:32:24.205Z,77.23
2019-01-03T02:34:54.205Z,77.45
2019-01-03T02:37:24.387Z,77.27
2019-01-03T02:39:54.662Z,77.30
2019-01-03T02:42:24.753Z,77.40
2019-01-03T02:44:54.614Z,77.60
2019-01-03T02:47:24.444Z,77.64
2019-01-03T02:49:54.270Z,77.43
2019-01-03T02:52:24.511Z,77.50
2019-01-03T02:54:54.049Z,77.39
2019-01-03T02:57:23.674Z,77.54
2019-01-03T02:59:53.847Z,77.40
2019-01-03T03:02:23.672Z,77.40
2019-01-03T03:04:53.396Z,77.42
2019-01-03T03:07:23.256Z,77.56
2019-01-03T03:09:53.773Z,77.72
2019-01-03T03:12:23.876Z,77.68
2019-01-03T03:14:54.405Z,77.54
2019-01-03T03:17:24.541Z,77.52
2019-01-03T03:19:54.630Z,77.68
2019-01-03T03:22:24.491Z,77.63
2019-01-03T03:24:54.290Z,77.96
2019-01-03T03:27:24.407Z,77.79
2019-01-03T03:29:54.607Z,78.11
2019-01-03T03:32:24.484Z,77.88
2019-01-03T03:34:54.216Z,77.92
2019-01-03T03:37:24.106Z,78.32
2019-01-03T03:39:53.971Z,78.34
2019-01-03T03:42:23.362Z,78.26
2019-01-03T03:44:53.211Z,78.44
2019-01-03T03:47:23.402Z,78.61
2019-01-03T03:49:53.195Z,78.47
2019-01-03T03:52:23.394Z,78.63
2019-01-03T03:54:53.207Z,78.54
2019-01-03T03:57:23.314Z,78.71
2019-01-03T03:59:53.202Z,78.63
2019-01-03T04:02:22.997Z,78.63
2019-01-03T04:04:52.842Z,78.67
2019-01-03T04:07:22.682Z,78.55
2019-01-03T04:09:53.422Z,78.54
2019-01-03T04:12:23.216Z,78.65
2019-01-03T04:14:53.933Z,78.64
2019-01-03T04:17:23.399Z,78.39
2019-01-03T04:19:53.793Z,78.51
2019-01-03T04:22:24.080Z,78.32
2019-01-03T04:24:53.905Z,78.56
2019-01-03T04:27:24.117Z,78.40
2019-01-03T04:29:54.401Z,78.34
2019-01-03T04:32:24.259Z,78.46
2019-01-03T04:34:54.754Z,78.59
2019-01-03T04:37:26.846Z,78.30
2019-01-03T04:39:56.877Z,78.25
2019-01-03T04:42:26.690Z,78.42
2019-01-03T04:44:56.878Z,78.54
2019-01-03T04:47:27.137Z,78.39
2019-01-03T04:49:56.669Z,78.64
2019-01-03T04:52:26.187Z,78.89
2019-01-03T04:54:55.510Z,78.77
2019-01-03T04:57:25.661Z,78.54
2019-01-03T04:59:55.506Z,78.64
2019-01-03T05:02:25.879Z,78.81
2019-01-03T05:04:56.716Z,78.78
2019-01-03T05:07:26.894Z,79.00
2019-01-03T05:09:57.385Z,79.01
2019-01-03T05:12:27.225Z,79.15
2019-01-03T05:14:57.362Z,79.44
2019-01-03T05:17:27.195Z,79.55
2019-01-03T05:19:57.028Z,79.40
2019-01-03T05:22:27.051Z,79.40
2019-01-03T05:24:56.931Z,79.63
2019-01-03T05:27:26.659Z,79.30
2019-01-03T05:29:58.676Z,79.26
2019-01-03T05:32:29.025Z,79.43
2019-01-03T05:34:58.915Z,79.43
2019-01-03T05:37:29.375Z,79.55
2019-01-03T05:39:59.585Z,79.40
2019-01-03T05:42:29.406Z,79.86
2019-01-03T05:44:59.270Z,79.81
2019-01-03T05:47:29.673Z,79.72
2019-01-03T05:49:59.509Z,80.05
2019-01-03T05:52:29.932Z,80.33
2019-01-03T05:54:59.732Z,80.34
2019-01-03T05:57:29.893Z,80.09
2019-01-03T05:59:59.738Z,80.23
2019-01-03T06:02:29.496Z,80.35
2019-01-03T06:04:59.304Z,80.08
2019-01-03T06:07:29.460Z,80.14
2019-01-03T06:09:59.704Z,80.49
2019-01-03T06:12:29.553Z,80.63
2019-01-03T06:14:59.447Z,80.65
2019-01-03T06:17:29.607Z,80.50
2019-01-03T06:19:59.657Z,80.57
2019-01-03T06:22:30.246Z,80.76
2019-01-03T06:25:00.324Z,80.78
2019-01-03T06:27:30.487Z,81.16
2019-01-03T06:30:01.688Z,81.16
2019-01-03T06:32:32.075Z,81.12
2019-01-03T06:35:01.995Z,81.27
2019-01-03T06:37:32.124Z,81.39
2019-01-03T06:40:05.556Z,81.16
2019-01-03T06:42:35.227Z,81.53
2019-01-03T06:45:05.214Z,81.41
2019-01-03T06:47:35.062Z,81.66
2019-01-03T06:50:04.863Z,81.22
2019-01-03T06:52:34.737Z,81.39
2019-01-03T06:55:04.281Z,81.32
2019-01-03T06:57:34.303Z,81.55
2019-01-03T07:00:04.057Z,81.35
2019-01-03T07:02:33.908Z,81.65
2019-01-03T07:05:04.038Z,81.53
2019-01-03T07:07:34.287Z,81.44
2019-01-03T07:10:04.341Z,81.52
2019-01-03T07:12:35.276Z,81.38
2019-01-03T07:15:05.437Z,81.42
2019-01-03T07:17:38.813Z,81.71
2019-01-03T07:20:09.443Z,81.44
2019-01-03T07:22:40.018Z,81.35
2019-01-03T07:25:09.901Z,81.32
2019-01-03T07:27:39.418Z,81.22
2019-01-03T07:30:16.161Z,81.44
2019-01-03T07:32:42.052Z,81.38
2019-01-03T07:35:11.679Z,81.33
2019-01-03T07:37:41.661Z,81.41
2019-01-03T07:40:16.059Z,81.42
2019-01-03T07:42:45.928Z,81.16
2019-01-03T07:45:15.768Z,81.19
2019-01-03T07:47:45.538Z,81.52
2019-01-03T07:50:15.153Z,81.48
2019-01-03T07:52:44.712Z,81.72
2019-01-03T07:55:14.203Z,81.44
2019-01-03T07:57:43.987Z,81.45
2019-01-03T08:00:13.776Z,81.41
2019-01-03T08:02:43.459Z,81.20
2019-01-03T08:05:12.877Z,81.68
2019-01-03T08:07:42.519Z,81.84
2019-01-03T08:10:12.569Z,82.58
2019-01-03T08:12:42.102Z,82.11
2019-01-03T08:15:12.106Z,82.90
2019-01-03T08:17:41.906Z,82.64
2019-01-03T08:20:11.404Z,81.97
2019-01-03T08:22:40.931Z,81.37
2019-01-03T08:25:10.328Z,80.97
2019-01-03T08:27:40.386Z,79.86
2019-01-03T08:30:10.271Z,79.93
2019-01-03T08:32:41.431Z,79.47
2019-01-03T08:35:11.129Z,78.63
2019-01-03T08:37:40.582Z,78.44
2019-01-03T08:40:10.929Z,77.88
2019-01-03T08:42:40.693Z,77.24
2019-01-03T08:45:12.062Z,77.29
2019-01-03T08:47:42.165Z,77.22
2019-01-03T08:50:11.624Z,76.79
2019-01-03T08:52:41.624Z,75.90
2019-01-03T08:55:12.146Z,76.25
2019-01-03T08:57:41.958Z,75.42
2019-01-03T09:00:12.511Z,74.81
2019-01-03T09:02:43.070Z,74.77
2019-01-03T09:05:32.561Z,74.89
2019-01-03T09:08:06.252Z,74.53
2019-01-03T09:10:39.395Z,72.80
2019-01-03T09:13:09.572Z,73.12
2019-01-03T09:15:44.231Z,71.86
2019-01-03T09:18:24.381Z,71.75
2019-01-03T09:20:58.653Z,70.93
2019-01-03T09:23:28.465Z,71.80
2019-01-03T09:25:58.546Z,69.67
2019-01-03T09:28:29.747Z,69.83
2019-01-03T09:31:02.259Z,68.27
2019-01-03T09:33:33.971Z,68.72
2019-01-03T09:36:04.126Z,68.43
2019-01-03T09:38:36.513Z,68.40
2019-01-03T09:41:06.208Z,68.23
2019-01-03T09:43:36.402Z,67.11
2019-01-03T09:46:06.340Z,65.84
2019-01-03T09:48:36.345Z,65.85
2019-01-03T09:51:05.961Z,65.53
2019-01-03T09:53:35.928Z,64.42
2019-01-03T09:56:05.603Z,64.81
2019-01-03T09:58:35.429Z,63.62
2019-01-03T10:01:05.003Z,65.29
2019-01-03T10:03:35.290Z,64.30
2019-01-03T10:06:05.367Z,63.32
2019-01-03T10:08:35.134Z,62.45
2019-01-03T10:11:04.668Z,63.36
2019-01-03T10:13:34.760Z,61.81
2019-01-03T10:16:04.518Z,61.54
2019-01-03T10:18:34.035Z,61.71
2019-01-03T10:21:04.268Z,62.07
2019-01-03T10:23:34.165Z,61.14
2019-01-03T10:26:04.676Z,61.18
2019-01-03T10:28:34.945Z,61.67
2019-01-03T10:31:04.798Z,61.10
2019-01-03T10:33:34.361Z,61.18
2019-01-03T10:36:04.151Z,60.39
2019-01-03T10:38:33.562Z,60.02
2019-01-03T10:41:03.284Z,60.46
2019-01-03T10:43:33.132Z,60.22
2019-01-03T10:46:03.198Z,59.63
2019-01-03T10:48:32.608Z,59.46
2019-01-03T10:57:14.292Z,58.84
2019-01-03T10:59:43.766Z,59.52
2019-01-03T11:02:13.610Z,59.60
2019-01-03T11:04:43.909Z,57.71
2019-01-03T11:07:14.343Z,58.43
2019-01-03T11:09:44.992Z,57.93
2019-01-03T11:12:21.436Z,57.35
2019-01-03T11:14:52.940Z,59.81
2019-01-03T11:17:23.217Z,58.79
2019-01-03T11:19:54.988Z,57.70
2019-01-03T11:22:24.857Z,57.69
2019-01-03T11:24:55.109Z,57.77
2019-01-03T11:27:25.753Z,59.79
2019-01-03T11:29:56.322Z,58.77
2019-01-03T11:32:26.708Z,58.09
2019-01-03T11:34:56.417Z,58.14
2019-01-03T11:37:26.141Z,58.51
2019-01-03T11:39:56.391Z,59.63
2019-01-03T11:42:26.203Z,59.16
2019-01-03T11:44:56.380Z,57.63
2019-01-03T11:47:26.586Z,58.96
2019-01-03T11:49:57.104Z,58.36
2019-01-03T11:52:26.941Z,59.90
2019-01-03T11:54:56.829Z,57.20
2019-01-03T11:57:26.768Z,58.06
2019-01-03T11:59:56.538Z,58.59
2019-01-03T12:02:26.686Z,61.71
2019-01-03T12:04:56.941Z,58.51
2019-01-03T12:07:26.878Z,58.34
2019-01-03T12:09:57.118Z,59.56
2019-01-03T12:12:26.960Z,60.64
2019-01-03T12:14:56.459Z,58.24
2019-01-03T12:17:26.232Z,57.95
2019-01-03T12:19:55.840Z,58.50
2019-01-03T12:22:25.614Z,58.39
2019-01-03T12:24:55.444Z,58.32
2019-01-03T12:27:25.363Z,58.16
2019-01-03T12:29:55.639Z,58.29
2019-01-03T12:32:25.835Z,58.84
2019-01-03T12:34:55.775Z,59.90
2019-01-03T12:37:25.757Z,59.04
2019-01-03T12:39:56.671Z,59.01
2019-01-03T12:42:26.512Z,59.70
2019-01-03T12:44:56.696Z,59.83
2019-01-03T12:47:26.367Z,59.71
2019-01-03T12:49:56.298Z,60.34
2019-01-03T12:52:26.113Z,61.71
2019-01-03T12:54:56.257Z,61.50
2019-01-03T12:57:26.392Z,61.84
2019-01-03T12:59:56.559Z,61.85
2019-01-03T13:02:26.128Z,62.00
2019-01-03T13:04:56.211Z,62.55
2019-01-03T13:07:26.602Z,62.84
2019-01-03T13:09:56.737Z,63.66
2019-01-03T13:12:26.826Z,63.63
2019-01-03T13:14:56.783Z,63.45
2019-01-03T13:17:27.026Z,63.90
2019-01-03T13:19:57.322Z,64.21
2019-01-03T13:22:27.439Z,64.96
2019-01-03T13:24:57.617Z,64.71
2019-01-03T13:27:28.620Z,65.00
2019-01-03T13:29:58.241Z,65.52
2019-01-03T13:32:37.314Z,65.71
2019-01-03T13:35:07.443Z,65.81
2019-01-03T13:37:37.534Z,66.07
2019-01-03T13:40:08.858Z,67.03
2019-01-03T13:42:50.690Z,67.04
2019-01-03T13:45:23.411Z,67.48
2019-01-03T13:47:52.999Z,67.74
2019-01-03T13:50:30.777Z,68.04
2019-01-03T13:53:00.836Z,68.02
2019-01-03T13:55:30.919Z,68.11
2019-01-03T13:58:00.439Z,68.13
2019-01-03T14:00:29.914Z,68.58
2019-01-03T14:02:59.662Z,68.66
2019-01-03T14:05:29.772Z,68.99
2019-01-03T14:07:59.358Z,69.52
2019-01-03T14:10:28.905Z,69.95
2019-01-03T14:12:59.374Z,69.72
2019-01-03T14:15:29.232Z,69.88
2019-01-03T14:17:58.794Z,70.48
2019-01-03T14:20:35.080Z,70.18
2019-01-03T14:23:05.974Z,70.22
2019-01-03T14:25:35.463Z,70.18
2019-01-03T14:28:05.098Z,70.89
2019-01-03T14:30:34.855Z,70.93
2019-01-03T14:33:04.527Z,71.07
2019-01-03T14:35:34.094Z,71.30
2019-01-03T14:38:03.854Z,71.85
2019-01-03T14:40:33.622Z,72.00
2019-01-03T14:43:03.008Z,72.22
2019-01-03T14:45:32.616Z,72.27
2019-01-03T14:48:01.961Z,72.66
2019-01-03T14:50:31.565Z,72.62
2019-01-03T14:53:01.072Z,73.16
2019-01-03T14:55:30.811Z,73.48
2019-01-03T14:58:00.261Z,73.26
2019-01-03T15:00:29.735Z,73.74
2019-01-03T15:02:59.176Z,73.80
2019-01-03T15:05:29.020Z,73.74
2019-01-03T15:07:58.487Z,73.91
2019-01-03T15:10:28.321Z,74.07
2019-01-03T15:12:58.591Z,73.86
2019-01-03T15:15:28.194Z,73.97
2019-01-03T15:18:03.750Z,74.01
2019-01-03T15:20:34.941Z,74.19
2019-01-03T15:23:04.249Z,74.17
2019-01-03T15:25:33.702Z,74.71
2019-01-03T15:28:03.439Z,74.49
2019-01-03T15:30:33.101Z,74.93
2019-01-03T15:33:03.386Z,74.50
2019-01-03T15:35:33.947Z,75.30
2019-01-03T15:38:04.672Z,74.41
2019-01-03T15:40:35.241Z,75.29
2019-01-03T15:43:05.044Z,76.02
2019-01-03T15:45:35.224Z,76.04
2019-01-03T15:48:05.861Z,76.63
2019-01-03T15:50:35.632Z,76.53
2019-01-03T15:53:05.462Z,76.53
2019-01-03T15:55:35.791Z,77.59
2019-01-03T15:58:06.138Z,77.36
2019-01-03T16:01:01.742Z,77.02
2019-01-03T16:03:31.594Z,77.36
2019-01-03T16:06:01.473Z,77.60
2019-01-03T16:08:32.953Z,77.64
2019-01-03T16:11:02.511Z,78.60
2019-01-03T16:13:32.034Z,77.96
2019-01-03T16:16:10.117Z,77.91
2019-01-03T16:18:45.759Z,79.01
2019-01-03T16:21:16.417Z,78.40
2019-01-03T16:23:46.046Z,79.31
2019-01-03T16:26:16.260Z,79.36
2019-01-03T16:28:46.580Z,79.06
2019-01-03T16:31:16.381Z,79.39
2019-01-03T16:33:46.828Z,78.91
2019-01-03T16:36:16.600Z,79.49
2019-01-03T16:38:46.248Z,79.40
2019-01-03T16:41:16.280Z,79.80
2019-01-03T16:43:49.697Z,80.13
2019-01-03T16:46:19.216Z,80.76
2019-01-03T16:48:49.192Z,80.14
2019-01-03T16:51:19.052Z,80.27
2019-01-03T16:53:48.637Z,80.91
2019-01-03T16:56:18.991Z,80.82
2019-01-03T16:58:48.650Z,80.57
2019-01-03T17:01:19.023Z,80.78
2019-01-03T17:03:49.023Z,80.71
2019-01-03T17:06:18.465Z,80.69
2019-01-03T17:08:47.971Z,81.18
2019-01-03T17:11:17.860Z,81.08
2019-01-03T17:13:47.435Z,81.01
2019-01-03T17:16:17.187Z,81.29
2019-01-03T17:18:46.747Z,81.92
2019-01-03T17:21:16.212Z,81.86
2019-01-03T17:23:45.726Z,81.45
2019-01-03T17:26:15.403Z,81.92
2019-01-03T17:28:44.878Z,81.51
2019-01-03T17:31:14.383Z,81.95
2019-01-03T17:33:44.761Z,81.96
2019-01-03T17:36:14.820Z,82.47
2019-01-03T17:38:44.850Z,82.20
2019-01-03T17:41:14.476Z,81.31
2019-01-03T17:43:44.003Z,81.54
2019-01-03T17:46:14.051Z,81.52
2019-01-03T17:48:43.626Z,82.47
2019-01-03T17:51:13.502Z,81.83
2019-01-03T17:53:43.056Z,82.30
2019-01-03T17:56:12.908Z,81.77
2019-01-03T17:58:42.321Z,81.91
2019-01-03T18:01:12.166Z,82.26
2019-01-03T18:03:42.159Z,81.84
2019-01-03T18:06:11.978Z,82.44
2019-01-03T18:08:41.540Z,82.20
2019-01-03T18:11:11.095Z,82.16
2019-01-03T18:13:40.734Z,81.98
2019-01-03T18:16:10.740Z,82.23
2019-01-03T18:18:40.333Z,82.23
2019-01-03T18:21:09.889Z,82.82
2019-01-03T18:23:39.648Z,82.50
2019-01-03T18:26:09.190Z,82.31
2019-01-03T18:28:38.556Z,83.36
2019-01-03T18:31:08.587Z,82.98
2019-01-03T18:33:38.290Z,82.72
2019-01-03T18:36:08.048Z,83.52
2019-01-03T18:38:37.609Z,82.46
2019-01-03T18:41:07.238Z,82.76
2019-01-03T18:43:37.016Z,82.50
2019-01-03T18:46:06.864Z,82.85
2019-01-03T18:48:36.721Z,82.90
2019-01-03T18:51:07.000Z,82.70
2019-01-03T18:53:37.203Z,82.47
2019-01-03T18:56:07.087Z,82.88
2019-01-03T18:58:36.973Z,83.27
2019-01-03T19:01:06.782Z,83.07
2019-01-03T19:03:36.911Z,83.54
2019-01-03T19:06:06.814Z,82.98
2019-01-03T19:08:36.645Z,82.92
2019-01-03T19:11:06.497Z,82.73
2019-01-03T19:13:36.671Z,82.84
2019-01-03T19:16:06.958Z,83.41
2019-01-03T19:18:36.602Z,83.30
2019-01-03T19:21:06.139Z,83.09
2019-01-03T19:23:36.333Z,83.04
2019-01-03T19:26:07.293Z,83.13
2019-01-03T19:28:37.166Z,83.13
2019-01-03T19:31:08.425Z,83.80
2019-01-03T19:33:38.615Z,83.07
2019-01-03T19:36:09.136Z,83.31
2019-01-03T19:38:39.587Z,82.96
2019-01-03T19:41:09.854Z,83.57
2019-01-03T19:43:40.223Z,83.03
2019-01-03T19:46:10.516Z,83.07
2019-01-03T19:48:40.908Z,82.87
2019-01-03T19:51:11.014Z,83.03
2019-01-03T19:53:41.234Z,83.03
2019-01-03T19:56:11.652Z,83.30
2019-01-03T19:58:41.934Z,82.94
2019-01-03T20:02:02.265Z,82.50
2019-01-03T20:04:32.158Z,82.61
2019-01-03T20:07:02.295Z,82.24
2019-01-03T20:09:33.496Z,82.44
2019-01-03T20:12:03.499Z,82.45
2019-01-03T20:14:33.436Z,82.29
2019-01-03T20:17:03.579Z,82.20
2019-01-03T20:19:33.787Z,82.35
2019-01-03T20:22:03.388Z,81.90
2019-01-03T20:24:33.240Z,82.36
2019-01-03T20:27:03.148Z,82.40
2019-01-03T20:29:32.973Z,82.49
2019-01-03T20:32:03.173Z,82.14
2019-01-03T20:34:33.012Z,82.17
2019-01-03T20:37:03.153Z,81.99
2019-01-03T20:39:33.051Z,82.47
2019-01-03T20:42:03.845Z,82.35
2019-01-03T20:44:33.667Z,82.03
2019-01-03T20:47:03.514Z,82.42
2019-01-03T20:49:33.863Z,81.98
2019-01-03T20:52:03.783Z,81.67
2019-01-03T20:54:33.690Z,82.34
2019-01-03T20:57:03.748Z,81.91
2019-01-03T20:59:33.632Z,82.02
2019-01-03T21:02:03.855Z,81.88
2019-01-03T21:04:33.709Z,82.10
2019-01-03T21:07:03.578Z,82.26
2019-01-03T21:09:33.535Z,82.28
2019-01-03T21:12:03.391Z,82.16
2019-01-03T21:14:34.002Z,82.83
2019-01-03T21:17:03.915Z,83.11
2019-01-03T21:19:34.063Z,83.02
2019-01-03T21:22:03.876Z,82.68
2019-01-03T21:24:34.181Z,82.76
2019-01-03T21:27:03.758Z,82.80
2019-01-03T21:29:33.306Z,82.52
2019-01-03T21:32:03.132Z,82.57
2019-01-03T21:34:32.623Z,82.92
2019-01-03T21:37:02.357Z,82.87
2019-01-03T21:39:32.508Z,82.38
2019-01-03T21:42:02.362Z,82.11
2019-01-03T21:44:32.378Z,82.31
2019-01-03T21:47:02.801Z,82.44
2019-01-03T21:49:33.650Z,82.58
2019-01-03T21:52:04.286Z,82.17
2019-01-03T21:54:35.251Z,82.31
2019-01-03T21:57:05.491Z,82.20
2019-01-03T21:59:36.376Z,82.33
2019-01-03T22:02:06.923Z,82.79
2019-01-03T22:04:38.328Z,82.29
2019-01-03T22:07:07.884Z,82.35
2019-01-03T22:09:38.549Z,82.23
2019-01-03T22:12:08.082Z,82.41
2019-01-03T22:14:38.431Z,82.76
2019-01-03T22:17:09.285Z,83.31
2019-01-03T22:19:41.221Z,83.51
2019-01-03T22:22:11.015Z,83.18
2019-01-03T22:24:40.854Z,84.42
2019-01-03T22:27:15.421Z,84.28
2019-01-03T22:29:45.184Z,83.99
2019-01-03T22:32:15.061Z,84.18
2019-01-03T22:34:45.268Z,84.42
2019-01-03T22:37:17.177Z,84.32
2019-01-03T22:39:47.204Z,83.58
2019-01-03T22:42:17.309Z,83.64
2019-01-03T22:44:47.472Z,83.54
2019-01-03T22:47:17.480Z,83.19
2019-01-03T22:49:47.026Z,83.48
2019-01-03T22:52:16.732Z,83.25
2019-01-03T22:54:46.330Z,83.98
2019-01-03T22:57:16.778Z,84.47
2019-01-03T22:59:46.893Z,85.22
2019-01-03T23:02:16.740Z,85.22
2019-01-03T23:04:49.288Z,84.55
2019-01-03T23:07:18.572Z,83.94
2019-01-03T23:09:49.509Z,83.94
2019-01-03T23:12:19.261Z,84.80
2019-01-03T23:14:49.033Z,85.04
2019-01-03T23:17:19.560Z,84.96
2019-01-03T23:19:49.346Z,85.36
2019-01-03T23:22:19.149Z,84.48
2019-01-03T23:24:49.022Z,84.80
2019-01-03T23:27:18.925Z,84.11
2019-01-03T23:29:49.713Z,83.94
2019-01-03T23:32:19.729Z,83.68
2019-01-03T23:34:50.309Z,83.45
2019-01-03T23:37:20.571Z,83.70
2019-01-03T23:39:51.284Z,83.24
2019-01-03T23:42:21.244Z,83.79
2019-01-03T23:45:14.410Z,83.51
2019-01-03T23:47:44.295Z,83.88
2019-01-03T23:50:17.088Z,83.58
2019-01-03T23:52:46.888Z,83.51
2019-01-03T23:55:16.966Z,83.49
2019-01-03T23:57:46.666Z,83.52
